Wilmington, NC

1:13 PM EDT on April 27, 2017 (GMT -0400)
Woodlawn | | Change Station
Active Advisory: Coastal Flood Advisory Active Notice: Coastal Flood Advisory

Elev 25 ft 34.21 °N, 77.94 °W | Updated 19 seconds ago

Clear
Clear
83.7 °F
Feels Like 83 °F
N
5.4
Wind Variable Wind from SSW
Gusts 7.6 mph

Today
High -- | Low -- °F
--% Chance of Precip.
Yesterday
High -- | Low -- °F
Precip. -- in
Pressure 29.91 in
Visibility 10.0 miles
Clouds Few 6000 ft
Heat Index 83 °F
Dew Point 57 °F
Humidity 40%
Rainfall 0.00 in
Snow Depth Not available.
6:26 AM 7:53 PM
New Moon, 2% visible
METAR KILM 271653Z 18015G22KT 10SM FEW060 27/14 A2991 RMK AO2 SLP128 T02720139
Pressure 29.91 in
Visibility 10.0 miles
Clouds Few 6000 ft
Heat Index 83 °F
Dew Point 57 °F
Humidity 40%
Rainfall 0.00 in
Snow Depth Not available.
6:26 AM 7:53 PM
New Moon, 2% visible
METAR KILM 271653Z 18015G22KT 10SM FEW060 27/14 A2991 RMK AO2 SLP128 T02720139

Get Your Daily Forecast Email!

Thanks for signing up!

Be on the lookout for a verification email in your inbox.

You'll start receiving severe weather alerts in your inbox..

×

10-Day Weather Forecast

Almanac

Astronomy

Apr. 27, 2017 Rise Set
Actual Time
Civil Twilight
Nautical Twilight
Astronomical Twilight
Moon
Length of Visible Light
Length of Day
Tomorrow will be .
, % of the Moon is Illuminated

Today's Extremes

State Highs State Lows

Community

WunderPhotos

WunderBlog® & News

Nearby

Air Quality

  Air Quality AQ Index Pollutant
Not available.

Snow Depth

Station Depth Elevation

Earthquake Activity

City Distance Mag. Time & Date
Minimum magnitude displayed is 2.5.

Coastal Water Temperatures

Place Temperature

Stations

Nearby Weather Stations

Station Location Temp. Windchill Dew Point Humidity Wind Precip. Elev Updated Type
                   

Watches & Warnings

Coastal Flood Advisory
Issued: 1:05 PM EDT Apr. 27, 2017 – National Weather Service

... Coastal flood advisory remains in effect from 9 PM this evening
to 1 am EDT Friday...

* location... lower Cape Fear River including downtown Wilmington.

* Coastal flooding... the tide gauge in downtown Wilmington is
expected to reach 6.2 ft MLLW.

* Timing... between 9 PM and 1 am... peaking around 11 PM.

* Impacts... flooding will affect the North Carolina battleship
parking lot and battleship drive. Water will rise through the
storm drains and spread onto Water Street near the Market street
intersection to a depth just under 1 foot.

Precautionary/preparedness actions...

A coastal flood advisory indicates that tides and recent rainfall
will combine to generate flooding of low areas along the river.